sensor_id;sensor_type;location;lat;lon;timestamp;P1;durP1;ratioP1;P2;durP2;ratioP2
37299;SDS011;23184;51.902;12.836;2023-03-01T00:01:32;9.40;;;4.28;;
37299;SDS011;23184;51.902;12.836;2023-03-01T00:03:58;10.68;;;4.38;;
37299;SDS011;23184;51.902;12.836;2023-03-01T00:06:25;11.15;;;5.03;;
37299;SDS011;23184;51.902;12.836;2023-03-01T00:08:51;10.95;;;4.72;;
37299;SDS011;23184;51.902;12.836;2023-03-01T00:11:19;12.38;;;4.50;;
37299;SDS011;23184;51.902;12.836;2023-03-01T00:13:47;10.20;;;4.40;;
37299;SDS011;23184;51.902;12.836;2023-03-01T00:16:25;8.82;;;4.25;;
37299;SDS011;23184;51.902;12.836;2023-03-01T00:18:56;8.30;;;4.13;;
37299;SDS011;23184;51.902;12.836;2023-03-01T00:21:22;9.63;;;4.35;;
37299;SDS011;23184;51.902;12.836;2023-03-01T00:23:48;10.52;;;4.60;;
37299;SDS011;23184;51.902;12.836;2023-03-01T00:26:14;9.40;;;4.55;;
37299;SDS011;23184;51.902;12.836;2023-03-01T00:28:41;10.60;;;5.15;;
37299;SDS011;23184;51.902;12.836;2023-03-01T00:31:11;10.30;;;4.78;;
37299;SDS011;23184;51.902;12.836;2023-03-01T00:33:41;13.65;;;6.40;;
37299;SDS011;23184;51.902;12.836;2023-03-01T00:36:07;10.20;;;4.07;;
37299;SDS011;23184;51.902;12.836;2023-03-01T00:38:35;9.88;;;5.70;;
37299;SDS011;23184;51.902;12.836;2023-03-01T00:41:08;9.15;;;4.80;;
37299;SDS011;23184;51.902;12.836;2023-03-01T00:43:36;9.13;;;4.57;;
37299;SDS011;23184;51.902;12.836;2023-03-01T00:46:03;11.43;;;4.95;;
37299;SDS011;23184;51.902;12.836;2023-03-01T00:48:29;12.38;;;5.13;;
37299;SDS011;23184;51.902;12.836;2023-03-01T00:50:55;12.23;;;4.60;;
37299;SDS011;23184;51.902;12.836;2023-03-01T00:53:20;10.20;;;5.22;;
37299;SDS011;23184;51.902;12.836;2023-03-01T00:55:46;9.32;;;4.53;;
37299;SDS011;23184;51.902;12.836;2023-03-01T00:58:11;9.88;;;5.25;;
37299;SDS011;23184;51.902;12.836;2023-03-01T01:00:37;9.90;;;4.72;;
37299;SDS011;23184;51.902;12.836;2023-03-01T01:03:02;11.35;;;4.72;;
37299;SDS011;23184;51.902;12.836;2023-03-01T01:05:28;9.70;;;4.80;;
37299;SDS011;23184;51.902;12.836;2023-03-01T01:07:53;9.73;;;4.03;;
37299;SDS011;23184;51.902;12.836;2023-03-01T01:10:19;11.07;;;4.85;;
37299;SDS011;23184;51.902;12.836;2023-03-01T01:12:45;14.10;;;5.03;;
37299;SDS011;23184;51.902;12.836;2023-03-01T01:15:11;12.23;;;4.88;;
37299;SDS011;23184;51.902;12.836;2023-03-01T01:17:39;9.50;;;4.22;;
37299;SDS011;23184;51.902;12.836;2023-03-01T01:20:04;9.88;;;4.63;;
37299;SDS011;23184;51.902;12.836;2023-03-01T01:22:31;10.45;;;4.93;;
37299;SDS011;23184;51.902;12.836;2023-03-01T01:24:56;9.00;;;4.47;;
37299;SDS011;23184;51.902;12.836;2023-03-01T01:27:22;10.55;;;5.05;;
37299;SDS011;23184;51.902;12.836;2023-03-01T01:29:47;9.90;;;4.65;;
37299;SDS011;23184;51.902;12.836;2023-03-01T01:32:13;12.43;;;5.25;;
37299;SDS011;23184;51.902;12.836;2023-03-01T01:34:38;9.10;;;4.35;;
37299;SDS011;23184;51.902;12.836;2023-03-01T01:37:04;14.07;;;5.05;;
37299;SDS011;23184;51.902;12.836;2023-03-01T01:39:32;10.02;;;4.50;;
37299;SDS011;23184;51.902;12.836;2023-03-01T01:41:59;9.68;;;5.03;;
37299;SDS011;23184;51.902;12.836;2023-03-01T01:44:26;12.38;;;5.90;;
37299;SDS011;23184;51.902;12.836;2023-03-01T01:47:06;13.05;;;5.60;;
37299;SDS011;23184;51.902;12.836;2023-03-01T01:49:39;12.68;;;5.88;;
37299;SDS011;23184;51.902;12.836;2023-03-01T01:54:39;9.63;;;4.68;;
37299;SDS011;23184;51.902;12.836;2023-03-01T01:57:44;13.43;;;5.45;;
37299;SDS011;23184;51.902;12.836;2023-03-01T02:00:19;10.68;;;4.95;;
37299;SDS011;23184;51.902;12.836;2023-03-01T02:02:46;11.40;;;5.40;;
37299;SDS011;23184;51.902;12.836;2023-03-01T02:05:18;10.80;;;5.55;;
37299;SDS011;23184;51.902;12.836;2023-03-01T02:07:51;10.15;;;5.43;;
37299;SDS011;23184;51.902;12.836;2023-03-01T02:10:17;16.15;;;5.00;;
37299;SDS011;23184;51.902;12.836;2023-03-01T02:12:42;10.48;;;5.90;;
37299;SDS011;23184;51.902;12.836;2023-03-01T02:15:08;10.05;;;5.28;;
37299;SDS011;23184;51.902;12.836;2023-03-01T02:17:34;15.90;;;5.95;;
37299;SDS011;23184;51.902;12.836;2023-03-01T02:20:07;14.75;;;5.75;;
37299;SDS011;23184;51.902;12.836;2023-03-01T02:22:45;12.23;;;6.53;;
37299;SDS011;23184;51.902;12.836;2023-03-01T02:27:58;15.40;;;6.47;;
37299;SDS011;23184;51.902;12.836;2023-03-01T02:30:41;15.32;;;6.90;;
37299;SDS011;23184;51.902;12.836;2023-03-01T02:33:28;15.10;;;6.80;;
37299;SDS011;23184;51.902;12.836;2023-03-01T02:36:00;18.23;;;7.50;;
37299;SDS011;23184;51.902;12.836;2023-03-01T02:38:28;16.27;;;7.22;;
37299;SDS011;23184;51.902;12.836;2023-03-01T02:40:55;21.10;;;6.88;;
37299;SDS011;23184;51.902;12.836;2023-03-01T02:43:22;16.33;;;6.95;;
37299;SDS011;23184;51.902;12.836;2023-03-01T02:45:52;15.60;;;7.18;;
37299;SDS011;23184;51.902;12.836;2023-03-01T02:48:21;16.10;;;7.10;;
37299;SDS011;23184;51.902;12.836;2023-03-01T02:50:59;18.40;;;7.38;;
37299;SDS011;23184;51.902;12.836;2023-03-01T02:56:30;11.48;;;6.65;;
37299;SDS011;23184;51.902;12.836;2023-03-01T02:58:56;17.25;;;8.10;;
37299;SDS011;23184;51.902;12.836;2023-03-01T03:01:25;13.55;;;7.63;;
37299;SDS011;23184;51.902;12.836;2023-03-01T03:04:12;17.23;;;8.25;;
37299;SDS011;23184;51.902;12.836;2023-03-01T03:06:46;16.33;;;8.43;;
37299;SDS011;23184;51.902;12.836;2023-03-01T03:09:13;14.95;;;8.75;;
37299;SDS011;23184;51.902;12.836;2023-03-01T03:11:40;15.43;;;8.13;;
37299;SDS011;23184;51.902;12.836;2023-03-01T03:14:07;17.63;;;8.90;;
37299;SDS011;23184;51.902;12.836;2023-03-01T03:16:37;18.52;;;8.80;;
37299;SDS011;23184;51.902;12.836;2023-03-01T03:19:04;14.05;;;7.28;;
37299;SDS011;23184;51.902;12.836;2023-03-01T03:21:33;12.98;;;8.07;;
37299;SDS011;23184;51.902;12.836;2023-03-01T03:23:59;14.13;;;8.52;;
37299;SDS011;23184;51.902;12.836;2023-03-01T03:26:25;16.15;;;8.20;;
37299;SDS011;23184;51.902;12.836;2023-03-01T03:28:50;17.02;;;8.25;;
37299;SDS011;23184;51.902;12.836;2023-03-01T03:31:16;15.90;;;7.85;;
37299;SDS011;23184;51.902;12.836;2023-03-01T03:33:41;15.73;;;7.88;;
37299;SDS011;23184;51.902;12.836;2023-03-01T03:36:07;17.85;;;8.98;;
37299;SDS011;23184;51.902;12.836;2023-03-01T03:38:37;18.73;;;8.50;;
37299;SDS011;23184;51.902;12.836;2023-03-01T03:41:05;18.83;;;8.25;;
37299;SDS011;23184;51.902;12.836;2023-03-01T03:43:33;13.90;;;7.65;;
37299;SDS011;23184;51.902;12.836;2023-03-01T03:46:00;14.85;;;7.25;;
37299;SDS011;23184;51.902;12.836;2023-03-01T03:48:26;16.48;;;8.23;;
37299;SDS011;23184;51.902;12.836;2023-03-01T03:50:53;13.30;;;7.55;;
37299;SDS011;23184;51.902;12.836;2023-03-01T03:53:20;13.23;;;7.70;;
37299;SDS011;23184;51.902;12.836;2023-03-01T03:55:47;16.17;;;7.38;;
37299;SDS011;23184;51.902;12.836;2023-03-01T03:58:16;17.85;;;7.20;;
37299;SDS011;23184;51.902;12.836;2023-03-01T04:00:44;12.18;;;6.97;;
37299;SDS011;23184;51.902;12.836;2023-03-01T04:03:11;17.88;;;8.13;;
37299;SDS011;23184;51.902;12.836;2023-03-01T04:05:39;20.52;;;7.57;;
37299;SDS011;23184;51.902;12.836;2023-03-01T04:08:05;15.95;;;7.68;;
37299;SDS011;23184;51.902;12.836;2023-03-01T04:10:38;18.92;;;7.50;;
37299;SDS011;23184;51.902;12.836;2023-03-01T04:13:06;14.80;;;7.35;;
37299;SDS011;23184;51.902;12.836;2023-03-01T04:15:34;15.70;;;7.28;;
37299;SDS011;23184;51.902;12.836;2023-03-01T04:18:00;14.25;;;6.93;;
37299;SDS011;23184;51.902;12.836;2023-03-01T04:20:26;16.50;;;8.15;;
37299;SDS011;23184;51.902;12.836;2023-03-01T04:23:06;14.55;;;6.90;;
37299;SDS011;23184;51.902;12.836;2023-03-01T04:25:57;16.38;;;6.60;;
37299;SDS011;23184;51.902;12.836;2023-03-01T04:28:24;16.10;;;6.50;;
37299;SDS011;23184;51.902;12.836;2023-03-01T04:30:50;13.85;;;6.57;;
37299;SDS011;23184;51.902;12.836;2023-03-01T04:33:17;15.50;;;7.20;;
37299;SDS011;23184;51.902;12.836;2023-03-01T04:35:43;12.95;;;6.63;;
37299;SDS011;23184;51.902;12.836;2023-03-01T04:38:09;15.10;;;7.05;;
37299;SDS011;23184;51.902;12.836;2023-03-01T04:40:35;16.88;;;7.63;;
37299;SDS011;23184;51.902;12.836;2023-03-01T04:43:01;13.63;;;6.55;;
37299;SDS011;23184;51.902;12.836;2023-03-01T04:45:27;13.82;;;6.50;;
37299;SDS011;23184;51.902;12.836;2023-03-01T04:47:52;14.77;;;6.90;;
37299;SDS011;23184;51.902;12.836;2023-03-01T04:50:18;12.43;;;5.85;;
37299;SDS011;23184;51.902;12.836;2023-03-01T04:52:45;13.65;;;5.70;;
37299;SDS011;23184;51.902;12.836;2023-03-01T04:55:12;13.00;;;6.03;;
37299;SDS011;23184;51.902;12.836;2023-03-01T04:57:39;13.60;;;5.90;;
37299;SDS011;23184;51.902;12.836;2023-03-01T05:00:05;20.50;;;7.03;;
37299;SDS011;23184;51.902;12.836;2023-03-01T05:02:46;15.45;;;7.10;;
37299;SDS011;23184;51.902;12.836;2023-03-01T05:05:18;19.40;;;7.00;;
37299;SDS011;23184;51.902;12.836;2023-03-01T05:07:45;11.75;;;5.60;;
37299;SDS011;23184;51.902;12.836;2023-03-01T05:10:10;12.95;;;5.60;;
37299;SDS011;23184;51.902;12.836;2023-03-01T05:12:36;10.40;;;5.50;;
37299;SDS011;23184;51.902;12.836;2023-03-01T05:15:02;12.73;;;5.97;;
37299;SDS011;23184;51.902;12.836;2023-03-01T05:17:31;13.20;;;5.55;;
37299;SDS011;23184;51.902;12.836;2023-03-01T05:19:58;15.60;;;6.00;;
37299;SDS011;23184;51.902;12.836;2023-03-01T05:22:24;12.95;;;5.50;;
37299;SDS011;23184;51.902;12.836;2023-03-01T05:24:50;10.30;;;5.10;;
37299;SDS011;23184;51.902;12.836;2023-03-01T05:27:15;11.60;;;5.63;;
37299;SDS011;23184;51.902;12.836;2023-03-01T05:29:41;11.02;;;5.50;;
37299;SDS011;23184;51.902;12.836;2023-03-01T05:32:07;12.95;;;6.78;;
37299;SDS011;23184;51.902;12.836;2023-03-01T05:34:34;12.48;;;5.78;;
37299;SDS011;23184;51.902;12.836;2023-03-01T05:37:00;14.98;;;5.75;;
37299;SDS011;23184;51.902;12.836;2023-03-01T05:39:27;13.75;;;5.45;;
37299;SDS011;23184;51.902;12.836;2023-03-01T05:41:55;24.73;;;5.93;;
37299;SDS011;23184;51.902;12.836;2023-03-01T05:44:21;10.85;;;5.47;;
37299;SDS011;23184;51.902;12.836;2023-03-01T05:46:47;16.25;;;6.78;;
37299;SDS011;23184;51.902;12.836;2023-03-01T05:49:13;11.85;;;5.97;;
37299;SDS011;23184;51.902;12.836;2023-03-01T05:51:39;15.00;;;5.93;;
37299;SDS011;23184;51.902;12.836;2023-03-01T05:54:05;17.35;;;6.25;;
37299;SDS011;23184;51.902;12.836;2023-03-01T05:56:32;15.30;;;6.40;;
37299;SDS011;23184;51.902;12.836;2023-03-01T05:58:59;13.35;;;6.45;;
37299;SDS011;23184;51.902;12.836;2023-03-01T06:01:25;11.93;;;5.03;;
37299;SDS011;23184;51.902;12.836;2023-03-01T06:03:50;14.30;;;6.05;;
37299;SDS011;23184;51.902;12.836;2023-03-01T06:06:16;19.58;;;5.78;;
37299;SDS011;23184;51.902;12.836;2023-03-01T06:08:41;16.33;;;6.13;;
37299;SDS011;23184;51.902;12.836;2023-03-01T06:11:07;16.50;;;6.45;;
37299;SDS011;23184;51.902;12.836;2023-03-01T06:13:32;16.58;;;6.13;;
37299;SDS011;23184;51.902;12.836;2023-03-01T06:15:58;18.92;;;6.32;;
37299;SDS011;23184;51.902;12.836;2023-03-01T06:18:23;15.45;;;6.68;;
37299;SDS011;23184;51.902;12.836;2023-03-01T06:20:53;15.20;;;7.10;;
37299;SDS011;23184;51.902;12.836;2023-03-01T06:23:19;23.15;;;6.45;;
37299;SDS011;23184;51.902;12.836;2023-03-01T06:25:44;23.40;;;6.53;;
37299;SDS011;23184;51.902;12.836;2023-03-01T06:28:10;22.35;;;6.28;;
37299;SDS011;23184;51.902;12.836;2023-03-01T06:30:35;16.30;;;5.35;;
37299;SDS011;23184;51.902;12.836;2023-03-01T06:33:01;20.40;;;6.00;;
37299;SDS011;23184;51.902;12.836;2023-03-01T06:35:28;14.85;;;6.45;;
37299;SDS011;23184;51.902;12.836;2023-03-01T06:37:55;20.08;;;6.45;;
37299;SDS011;23184;51.902;12.836;2023-03-01T06:40:20;21.50;;;6.10;;
37299;SDS011;23184;51.902;12.836;2023-03-01T06:42:48;14.30;;;5.53;;
37299;SDS011;23184;51.902;12.836;2023-03-01T06:45:15;15.93;;;6.07;;
37299;SDS011;23184;51.902;12.836;2023-03-01T06:47:41;16.42;;;5.97;;
37299;SDS011;23184;51.902;12.836;2023-03-01T06:50:06;11.88;;;5.85;;
37299;SDS011;23184;51.902;12.836;2023-03-01T06:52:32;13.02;;;5.55;;
37299;SDS011;23184;51.902;12.836;2023-03-01T06:54:58;12.20;;;5.78;;
37299;SDS011;23184;51.902;12.836;2023-03-01T06:57:24;9.38;;;5.60;;
37299;SDS011;23184;51.902;12.836;2023-03-01T06:59:49;14.55;;;6.15;;
37299;SDS011;23184;51.902;12.836;2023-03-01T07:02:15;16.25;;;5.60;;
37299;SDS011;23184;51.902;12.836;2023-03-01T07:04:41;11.45;;;5.65;;
37299;SDS011;23184;51.902;12.836;2023-03-01T07:07:07;12.43;;;5.45;;
37299;SDS011;23184;51.902;12.836;2023-03-01T07:09:33;14.65;;;6.35;;
37299;SDS011;23184;51.902;12.836;2023-03-01T07:11:58;14.50;;;5.75;;
37299;SDS011;23184;51.902;12.836;2023-03-01T07:14:24;15.13;;;5.57;;
37299;SDS011;23184;51.902;12.836;2023-03-01T07:16:50;12.43;;;5.97;;
37299;SDS011;23184;51.902;12.836;2023-03-01T07:19:19;20.05;;;8.68;;
37299;SDS011;23184;51.902;12.836;2023-03-01T07:21:45;28.20;;;10.95;;
37299;SDS011;23184;51.902;12.836;2023-03-01T07:24:10;17.00;;;7.07;;
37299;SDS011;23184;51.902;12.836;2023-03-01T07:26:36;22.27;;;9.65;;
37299;SDS011;23184;51.902;12.836;2023-03-01T07:29:02;22.48;;;9.77;;
37299;SDS011;23184;51.902;12.836;2023-03-01T07:31:29;26.05;;;11.70;;
37299;SDS011;23184;51.902;12.836;2023-03-01T07:33:55;20.33;;;9.07;;
37299;SDS011;23184;51.902;12.836;2023-03-01T07:36:21;13.98;;;7.45;;
37299;SDS011;23184;51.902;12.836;2023-03-01T07:38:47;15.70;;;7.78;;
37299;SDS011;23184;51.902;12.836;2023-03-01T07:41:13;14.88;;;7.43;;
37299;SDS011;23184;51.902;12.836;2023-03-01T07:43:39;15.38;;;7.75;;
37299;SDS011;23184;51.902;12.836;2023-03-01T07:46:05;17.63;;;8.43;;
37299;SDS011;23184;51.902;12.836;2023-03-01T07:48:31;19.25;;;8.70;;
37299;SDS011;23184;51.902;12.836;2023-03-01T07:50:58;15.43;;;7.70;;
37299;SDS011;23184;51.902;12.836;2023-03-01T07:53:26;16.00;;;8.15;;
37299;SDS011;23184;51.902;12.836;2023-03-01T07:56:02;17.63;;;8.52;;
37299;SDS011;23184;51.902;12.836;2023-03-01T07:58:35;16.17;;;7.70;;
37299;SDS011;23184;51.902;12.836;2023-03-01T08:01:05;18.42;;;9.88;;
37299;SDS011;23184;51.902;12.836;2023-03-01T08:03:32;22.13;;;9.43;;
37299;SDS011;23184;51.902;12.836;2023-03-01T08:05:59;20.27;;;8.98;;
37299;SDS011;23184;51.902;12.836;2023-03-01T08:08:25;16.67;;;8.25;;
37299;SDS011;23184;51.902;12.836;2023-03-01T08:10:51;18.13;;;10.48;;
37299;SDS011;23184;51.902;12.836;2023-03-01T08:13:16;19.23;;;9.07;;
37299;SDS011;23184;51.902;12.836;2023-03-01T08:15:47;20.13;;;10.30;;
37299;SDS011;23184;51.902;12.836;2023-03-01T08:18:19;19.23;;;9.73;;
37299;SDS011;23184;51.902;12.836;2023-03-01T08:20:45;18.35;;;9.50;;
37299;SDS011;23184;51.902;12.836;2023-03-01T08:23:11;20.15;;;9.40;;
37299;SDS011;23184;51.902;12.836;2023-03-01T08:25:36;19.65;;;9.85;;
37299;SDS011;23184;51.902;12.836;2023-03-01T08:28:02;21.08;;;9.45;;
37299;SDS011;23184;51.902;12.836;2023-03-01T08:30:27;21.42;;;9.32;;
37299;SDS011;23184;51.902;12.836;2023-03-01T08:32:53;18.55;;;10.73;;
37299;SDS011;23184;51.902;12.836;2023-03-01T08:35:19;18.33;;;10.50;;
37299;SDS011;23184;51.902;12.836;2023-03-01T08:37:46;24.38;;;10.73;;
37299;SDS011;23184;51.902;12.836;2023-03-01T08:40:12;20.30;;;9.60;;
37299;SDS011;23184;51.902;12.836;2023-03-01T08:42:38;18.60;;;9.45;;
37299;SDS011;23184;51.902;12.836;2023-03-01T08:45:05;16.60;;;9.15;;
37299;SDS011;23184;51.902;12.836;2023-03-01T08:47:31;18.45;;;9.93;;
37299;SDS011;23184;51.902;12.836;2023-03-01T08:49:58;18.00;;;9.70;;
37299;SDS011;23184;51.902;12.836;2023-03-01T08:52:24;17.35;;;10.00;;
37299;SDS011;23184;51.902;12.836;2023-03-01T08:54:51;14.50;;;8.48;;
37299;SDS011;23184;51.902;12.836;2023-03-01T08:57:16;13.70;;;8.10;;
37299;SDS011;23184;51.902;12.836;2023-03-01T08:59:42;15.93;;;8.57;;
37299;SDS011;23184;51.902;12.836;2023-03-01T09:02:12;13.75;;;8.00;;
37299;SDS011;23184;51.902;12.836;2023-03-01T09:04:39;15.55;;;8.60;;
37299;SDS011;23184;51.902;12.836;2023-03-01T09:07:05;15.10;;;7.80;;
37299;SDS011;23184;51.902;12.836;2023-03-01T09:09:31;12.27;;;7.10;;
37299;SDS011;23184;51.902;12.836;2023-03-01T09:11:56;13.05;;;7.53;;
37299;SDS011;23184;51.902;12.836;2023-03-01T09:14:22;12.82;;;7.88;;
37299;SDS011;23184;51.902;12.836;2023-03-01T09:16:47;12.35;;;7.15;;
37299;SDS011;23184;51.902;12.836;2023-03-01T09:19:13;17.88;;;8.80;;
37299;SDS011;23184;51.902;12.836;2023-03-01T09:21:39;12.68;;;7.22;;
37299;SDS011;23184;51.902;12.836;2023-03-01T09:24:04;12.25;;;7.65;;
37299;SDS011;23184;51.902;12.836;2023-03-01T09:26:30;12.00;;;7.50;;
37299;SDS011;23184;51.902;12.836;2023-03-01T09:28:56;11.45;;;7.35;;
37299;SDS011;23184;51.902;12.836;2023-03-01T09:31:22;10.85;;;6.72;;
37299;SDS011;23184;51.902;12.836;2023-03-01T09:33:50;11.75;;;7.20;;
37299;SDS011;23184;51.902;12.836;2023-03-01T09:36:18;10.48;;;6.78;;
37299;SDS011;23184;51.902;12.836;2023-03-01T09:38:45;9.27;;;6.60;;
37299;SDS011;23184;51.902;12.836;2023-03-01T09:46:42;12.18;;;7.03;;
37299;SDS011;23184;51.902;12.836;2023-03-01T09:49:10;10.10;;;6.40;;
37299;SDS011;23184;51.902;12.836;2023-03-01T09:51:41;12.23;;;6.72;;
37299;SDS011;23184;51.902;12.836;2023-03-01T09:54:19;10.00;;;6.55;;
37299;SDS011;23184;51.902;12.836;2023-03-01T10:02:27;13.93;;;6.47;;
37299;SDS011;23184;51.902;12.836;2023-03-01T10:08:21;8.88;;;5.47;;
37299;SDS011;23184;51.902;12.836;2023-03-01T10:10:48;13.70;;;5.85;;
37299;SDS011;23184;51.902;12.836;2023-03-01T10:13:24;11.00;;;5.97;;
37299;SDS011;23184;51.902;12.836;2023-03-01T10:16:12;8.35;;;5.75;;
37299;SDS011;23184;51.902;12.836;2023-03-01T10:19:05;10.05;;;6.15;;
37299;SDS011;23184;51.902;12.836;2023-03-01T10:21:43;10.48;;;5.57;;
37299;SDS011;23184;51.902;12.836;2023-03-01T10:24:15;10.93;;;6.25;;
37299;SDS011;23184;51.902;12.836;2023-03-01T10:29:19;10.23;;;5.90;;
37299;SDS011;23184;51.902;12.836;2023-03-01T10:31:57;9.32;;;5.57;;
37299;SDS011;23184;51.902;12.836;2023-03-01T10:34:30;7.60;;;4.85;;
37299;SDS011;23184;51.902;12.836;2023-03-01T10:36:58;8.90;;;5.00;;
37299;SDS011;23184;51.902;12.836;2023-03-01T10:39:35;8.05;;;4.78;;
37299;SDS011;23184;51.902;12.836;2023-03-01T10:42:02;10.45;;;5.85;;
37299;SDS011;23184;51.902;12.836;2023-03-01T10:44:34;11.52;;;5.00;;
37299;SDS011;23184;51.902;12.836;2023-03-01T10:47:02;6.95;;;4.88;;
37299;SDS011;23184;51.902;12.836;2023-03-01T10:49:27;9.48;;;4.95;;
37299;SDS011;23184;51.902;12.836;2023-03-01T10:51:53;7.63;;;4.68;;
37299;SDS011;23184;51.902;12.836;2023-03-01T10:54:20;7.72;;;4.63;;
37299;SDS011;23184;51.902;12.836;2023-03-01T10:57:00;8.50;;;4.95;;
37299;SDS011;23184;51.902;12.836;2023-03-01T10:59:28;10.50;;;5.50;;
37299;SDS011;23184;51.902;12.836;2023-03-01T11:07:47;7.70;;;5.57;;
37299;SDS011;23184;51.902;12.836;2023-03-01T11:10:19;8.50;;;5.80;;
37299;SDS011;23184;51.902;12.836;2023-03-01T11:12:46;10.82;;;5.60;;
37299;SDS011;23184;51.902;12.836;2023-03-01T11:15:27;9.88;;;5.40;;
37299;SDS011;23184;51.902;12.836;2023-03-01T11:17:54;10.32;;;5.78;;
37299;SDS011;23184;51.902;12.836;2023-03-01T11:20:25;10.60;;;6.25;;
37299;SDS011;23184;51.902;12.836;2023-03-01T11:23:14;12.13;;;5.88;;
37299;SDS011;23184;51.902;12.836;2023-03-01T11:25:46;8.98;;;5.15;;
37299;SDS011;23184;51.902;12.836;2023-03-01T11:28:28;7.30;;;4.47;;
37299;SDS011;23184;51.902;12.836;2023-03-01T11:33:46;10.27;;;5.28;;
37299;SDS011;23184;51.902;12.836;2023-03-01T11:39:27;10.48;;;4.88;;
37299;SDS011;23184;51.902;12.836;2023-03-01T11:42:02;10.10;;;4.95;;
37299;SDS011;23184;51.902;12.836;2023-03-01T11:44:39;10.27;;;5.05;;
37299;SDS011;23184;51.902;12.836;2023-03-01T11:47:17;11.82;;;4.88;;
37299;SDS011;23184;51.902;12.836;2023-03-01T11:50:07;8.30;;;4.68;;
37299;SDS011;23184;51.902;12.836;2023-03-01T11:52:51;10.63;;;5.00;;
37299;SDS011;23184;51.902;12.836;2023-03-01T11:55:29;9.07;;;4.32;;
37299;SDS011;23184;51.902;12.836;2023-03-01T11:58:58;9.65;;;3.95;;
37299;SDS011;23184;51.902;12.836;2023-03-01T12:01:14;10.32;;;4.18;;
37299;SDS011;23184;51.902;12.836;2023-03-01T12:09:48;10.98;;;4.72;;
37299;SDS011;23184;51.902;12.836;2023-03-01T12:12:30;10.43;;;4.28;;
37299;SDS011;23184;51.902;12.836;2023-03-01T12:17:54;9.00;;;4.65;;
37299;SDS011;23184;51.902;12.836;2023-03-01T12:23:38;8.18;;;4.03;;
37299;SDS011;23184;51.902;12.836;2023-03-01T12:26:29;9.40;;;4.45;;
37299;SDS011;23184;51.902;12.836;2023-03-01T12:29:20;11.15;;;4.25;;
37299;SDS011;23184;51.902;12.836;2023-03-01T12:32:01;9.85;;;4.40;;
37299;SDS011;23184;51.902;12.836;2023-03-01T12:40:23;8.57;;;3.83;;
37299;SDS011;23184;51.902;12.836;2023-03-01T12:45:44;8.52;;;3.72;;
37299;SDS011;23184;51.902;12.836;2023-03-01T12:53:05;9.73;;;4.43;;
37299;SDS011;23184;51.902;12.836;2023-03-01T12:55:40;9.63;;;4.20;;
37299;SDS011;23184;51.902;12.836;2023-03-01T13:01:00;6.57;;;3.85;;
37299;SDS011;23184;51.902;12.836;2023-03-01T13:04:01;7.40;;;3.92;;
37299;SDS011;23184;51.902;12.836;2023-03-01T13:06:41;10.82;;;4.50;;
37299;SDS011;23184;51.902;12.836;2023-03-01T13:09:19;8.13;;;3.90;;
37299;SDS011;23184;51.902;12.836;2023-03-01T13:11:48;7.57;;;3.80;;
37299;SDS011;23184;51.902;12.836;2023-03-01T13:16:45;7.35;;;3.45;;
37299;SDS011;23184;51.902;12.836;2023-03-01T13:19:15;10.48;;;4.00;;
37299;SDS011;23184;51.902;12.836;2023-03-01T13:21:45;8.73;;;4.28;;
37299;SDS011;23184;51.902;12.836;2023-03-01T13:24:25;8.05;;;3.92;;
37299;SDS011;23184;51.902;12.836;2023-03-01T13:29:52;6.15;;;3.75;;
37299;SDS011;23184;51.902;12.836;2023-03-01T13:35:03;6.38;;;3.65;;
37299;SDS011;23184;51.902;12.836;2023-03-01T13:37:36;5.85;;;3.47;;
37299;SDS011;23184;51.902;12.836;2023-03-01T13:42:48;7.45;;;3.33;;
37299;SDS011;23184;51.902;12.836;2023-03-01T13:45:20;4.18;;;3.00;;
37299;SDS011;23184;51.902;12.836;2023-03-01T13:48:25;5.82;;;3.38;;
37299;SDS011;23184;51.902;12.836;2023-03-01T13:50:51;5.72;;;3.83;;
37299;SDS011;23184;51.902;12.836;2023-03-01T13:53:24;5.13;;;3.22;;
37299;SDS011;23184;51.902;12.836;2023-03-01T13:55:56;5.32;;;3.00;;
37299;SDS011;23184;51.902;12.836;2023-03-01T13:58:29;4.85;;;3.53;;
37299;SDS011;23184;51.902;12.836;2023-03-01T14:01:01;5.63;;;3.67;;
37299;SDS011;23184;51.902;12.836;2023-03-01T14:03:28;4.45;;;3.42;;
37299;SDS011;23184;51.902;12.836;2023-03-01T14:08:34;5.47;;;3.20;;
37299;SDS011;23184;51.902;12.836;2023-03-01T14:17:03;5.90;;;3.35;;
37299;SDS011;23184;51.902;12.836;2023-03-01T14:19:41;4.20;;;3.00;;
37299;SDS011;23184;51.902;12.836;2023-03-01T14:24:50;4.63;;;3.00;;
37299;SDS011;23184;51.902;12.836;2023-03-01T14:27:25;5.07;;;3.28;;
37299;SDS011;23184;51.902;12.836;2023-03-01T14:29:55;4.80;;;3.13;;
37299;SDS011;23184;51.902;12.836;2023-03-01T14:32:27;4.68;;;2.97;;
37299;SDS011;23184;51.902;12.836;2023-03-01T14:34:54;5.78;;;3.38;;
37299;SDS011;23184;51.902;12.836;2023-03-01T14:37:32;4.40;;;2.97;;
37299;SDS011;23184;51.902;12.836;2023-03-01T14:39:59;5.25;;;3.42;;
37299;SDS011;23184;51.902;12.836;2023-03-01T14:42:28;4.97;;;3.05;;
37299;SDS011;23184;51.902;12.836;2023-03-01T14:44:58;5.35;;;3.30;;
37299;SDS011;23184;51.902;12.836;2023-03-01T14:47:27;4.80;;;3.10;;
37299;SDS011;23184;51.902;12.836;2023-03-01T14:49:59;6.60;;;3.50;;
37299;SDS011;23184;51.902;12.836;2023-03-01T14:52:38;4.82;;;3.30;;
37299;SDS011;23184;51.902;12.836;2023-03-01T14:55:13;4.85;;;3.50;;
37299;SDS011;23184;51.902;12.836;2023-03-01T14:57:43;6.15;;;3.28;;
37299;SDS011;23184;51.902;12.836;2023-03-01T15:00:10;5.00;;;3.33;;
37299;SDS011;23184;51.902;12.836;2023-03-01T15:02:53;6.32;;;3.80;;
37299;SDS011;23184;51.902;12.836;2023-03-01T15:05:27;6.55;;;3.97;;
37299;SDS011;23184;51.902;12.836;2023-03-01T15:07:56;6.40;;;3.63;;
37299;SDS011;23184;51.902;12.836;2023-03-01T15:10:25;5.43;;;3.50;;
37299;SDS011;23184;51.902;12.836;2023-03-01T15:13:10;5.63;;;3.40;;
37299;SDS011;23184;51.902;12.836;2023-03-01T15:15:44;5.50;;;3.90;;
37299;SDS011;23184;51.902;12.836;2023-03-01T15:18:32;5.68;;;3.80;;
37299;SDS011;23184;51.902;12.836;2023-03-01T15:21:20;5.95;;;4.05;;
37299;SDS011;23184;51.902;12.836;2023-03-01T15:23:48;5.25;;;3.70;;
37299;SDS011;23184;51.902;12.836;2023-03-01T15:26:30;8.00;;;3.78;;
37299;SDS011;23184;51.902;12.836;2023-03-01T15:28:59;5.97;;;3.72;;
37299;SDS011;23184;51.902;12.836;2023-03-01T15:31:35;5.38;;;3.53;;
37299;SDS011;23184;51.902;12.836;2023-03-01T15:34:25;6.75;;;3.70;;
37299;SDS011;23184;51.902;12.836;2023-03-01T15:36:49;5.97;;;3.72;;
37299;SDS011;23184;51.902;12.836;2023-03-01T15:39:50;5.68;;;3.33;;
37299;SDS011;23184;51.902;12.836;2023-03-01T15:45:06;6.90;;;3.60;;
37299;SDS011;23184;51.902;12.836;2023-03-01T15:47:38;5.72;;;3.60;;
37299;SDS011;23184;51.902;12.836;2023-03-01T15:50:05;7.10;;;3.83;;
37299;SDS011;23184;51.902;12.836;2023-03-01T15:52:41;10.27;;;2.92;;
37299;SDS011;23184;51.902;12.836;2023-03-01T15:55:23;8.52;;;3.92;;
37299;SDS011;23184;51.902;12.836;2023-03-01T15:58:02;7.15;;;3.63;;
37299;SDS011;23184;51.902;12.836;2023-03-01T16:00:31;6.88;;;3.33;;
37299;SDS011;23184;51.902;12.836;2023-03-01T16:02:57;5.78;;;3.10;;
37299;SDS011;23184;51.902;12.836;2023-03-01T16:05:28;5.93;;;3.50;;
37299;SDS011;23184;51.902;12.836;2023-03-01T16:07:58;10.02;;;3.28;;
37299;SDS011;23184;51.902;12.836;2023-03-01T16:10:23;7.40;;;3.40;;
37299;SDS011;23184;51.902;12.836;2023-03-01T16:12:49;4.97;;;3.00;;